createdAt,value
2022-12-03T00:00:25.991Z,8.77
2022-12-03T00:02:52.594Z,9.43
2022-12-03T00:05:19.202Z,8.17
2022-12-03T00:07:45.788Z,8.57
2022-12-03T00:10:12.492Z,8.70
2022-12-03T00:12:39.052Z,8.77
2022-12-03T00:15:07.161Z,8.50
2022-12-03T00:17:33.695Z,8.17
2022-12-03T00:20:00.323Z,8.47
2022-12-03T00:22:26.901Z,8.90
2022-12-03T00:24:53.816Z,8.53
2022-12-03T00:27:20.597Z,8.43
2022-12-03T00:29:47.227Z,9.03
2022-12-03T00:32:14.246Z,8.57
2022-12-03T00:34:40.803Z,8.97
2022-12-03T00:37:07.423Z,8.33
2022-12-03T00:39:34.015Z,8.70
2022-12-03T00:42:00.548Z,8.57
2022-12-03T00:44:27.234Z,8.73
2022-12-03T00:46:53.831Z,9.07
2022-12-03T00:49:20.430Z,8.40
2022-12-03T00:51:46.958Z,8.27
2022-12-03T00:54:13.480Z,8.73
2022-12-03T00:56:40.120Z,8.40
2022-12-03T00:59:06.663Z,8.30
2022-12-03T01:01:33.327Z,8.67
2022-12-03T01:03:59.848Z,8.60
2022-12-03T01:06:26.492Z,8.67
2022-12-03T01:08:52.979Z,8.90
2022-12-03T01:11:37.867Z,7.67
2022-12-03T01:14:09.431Z,8.67
2022-12-03T01:16:36.279Z,8.10
2022-12-03T01:19:03.325Z,8.20
2022-12-03T01:21:29.882Z,9.37
2022-12-03T01:23:56.779Z,8.63
2022-12-03T01:26:23.438Z,8.10
2022-12-03T01:28:50.017Z,8.70
2022-12-03T01:31:35.329Z,8.03
2022-12-03T01:34:01.928Z,8.37
2022-12-03T01:36:28.551Z,8.97
2022-12-03T01:38:55.091Z,8.50
2022-12-03T01:41:23.618Z,8.30
2022-12-03T01:43:50.609Z,7.83
2022-12-03T01:46:19.755Z,8.57
2022-12-03T01:48:46.351Z,8.80
2022-12-03T01:51:13.459Z,8.40
2022-12-03T01:53:40.028Z,8.47
2022-12-03T01:56:06.815Z,8.10
2022-12-03T01:58:33.501Z,8.17
2022-12-03T02:01:01.919Z,8.00
2022-12-03T02:03:28.525Z,7.80
2022-12-03T02:05:55.205Z,8.53
2022-12-03T02:08:29.747Z,8.13
2022-12-03T02:10:57.756Z,7.40
2022-12-03T02:13:24.363Z,8.13
2022-12-03T02:15:50.983Z,8.30
2022-12-03T02:18:17.672Z,8.47
2022-12-03T02:20:58.179Z,8.33
2022-12-03T02:23:40.180Z,8.03
2022-12-03T02:26:06.684Z,8.70
2022-12-03T02:28:33.260Z,7.50
2022-12-03T02:30:59.774Z,8.20
2022-12-03T02:33:26.377Z,7.90
2022-12-03T02:35:52.942Z,8.10
2022-12-03T02:38:26.603Z,7.90
2022-12-03T02:40:56.694Z,8.13
2022-12-03T02:43:23.176Z,8.30
2022-12-03T02:45:54.404Z,8.30
2022-12-03T02:48:28.419Z,8.17
2022-12-03T02:50:57.636Z,7.50
2022-12-03T02:53:29.048Z,8.13
2022-12-03T02:55:56.187Z,7.90
2022-12-03T02:58:23.060Z,7.40
2022-12-03T03:00:49.992Z,7.93
2022-12-03T03:03:16.516Z,7.80
2022-12-03T03:05:43.047Z,7.40
2022-12-03T03:08:09.670Z,7.27
2022-12-03T03:10:36.254Z,8.10
2022-12-03T03:13:03.744Z,7.63
2022-12-03T03:15:30.292Z,7.77
2022-12-03T03:17:56.886Z,7.33
2022-12-03T03:20:23.460Z,7.70
2022-12-03T03:22:50.009Z,7.70
2022-12-03T03:25:17.700Z,8.60
2022-12-03T03:27:44.308Z,7.67
2022-12-03T03:30:11.345Z,8.50
2022-12-03T03:32:38.309Z,8.03
2022-12-03T03:35:05.120Z,8.10
2022-12-03T03:37:31.608Z,8.13
2022-12-03T03:39:58.277Z,7.63
2022-12-03T03:42:24.766Z,8.17
2022-12-03T03:44:51.617Z,8.20
2022-12-03T03:47:18.424Z,8.27
2022-12-03T03:49:45.065Z,8.53
2022-12-03T03:52:11.826Z,8.23
2022-12-03T03:54:38.508Z,8.13
2022-12-03T03:57:05.041Z,7.90
2022-12-03T03:59:31.550Z,8.53
2022-12-03T04:01:58.111Z,7.17
2022-12-03T04:04:26.738Z,8.20
2022-12-03T04:06:53.391Z,7.93
2022-12-03T04:09:19.934Z,8.10
2022-12-03T04:12:05.139Z,8.83
2022-12-03T04:14:31.677Z,7.87
2022-12-03T04:16:58.308Z,7.87
2022-12-03T04:19:24.905Z,8.57
2022-12-03T04:22:10.250Z,7.73
2022-12-03T04:24:36.877Z,8.57
2022-12-03T04:27:22.194Z,8.13
2022-12-03T04:29:48.776Z,8.33
2022-12-03T04:32:34.087Z,7.80
2022-12-03T04:35:19.335Z,8.57
2022-12-03T04:37:45.951Z,7.67
2022-12-03T04:40:31.296Z,8.40
2022-12-03T04:42:57.805Z,8.13
2022-12-03T04:45:24.371Z,7.87
2022-12-03T04:47:50.931Z,7.83
2022-12-03T04:50:17.508Z,8.77
2022-12-03T04:52:44.022Z,8.53
2022-12-03T04:55:10.578Z,8.47
2022-12-03T04:57:37.161Z,8.67
2022-12-03T05:00:05.444Z,8.43
2022-12-03T05:02:32.067Z,8.30
2022-12-03T05:04:58.668Z,8.93
2022-12-03T05:07:25.226Z,8.70
2022-12-03T05:09:51.779Z,8.30
2022-12-03T05:12:18.295Z,8.00
2022-12-03T05:14:44.981Z,8.37
2022-12-03T05:17:11.578Z,9.10
2022-12-03T05:19:56.886Z,8.70
2022-12-03T05:22:23.462Z,7.93
2022-12-03T05:24:49.989Z,8.00
2022-12-03T05:27:21.746Z,8.20
2022-12-03T05:29:50.131Z,8.70
2022-12-03T05:32:16.713Z,8.33
2022-12-03T05:34:43.284Z,9.03
2022-12-03T05:37:09.837Z,8.17
2022-12-03T05:39:36.471Z,8.30
2022-12-03T05:42:21.779Z,8.70
2022-12-03T05:44:48.389Z,8.67
2022-12-03T05:47:14.980Z,8.90
2022-12-03T05:49:41.498Z,8.23
2022-12-03T05:52:08.051Z,8.87
2022-12-03T05:54:34.643Z,9.17
2022-12-03T05:57:01.188Z,9.13
2022-12-03T05:59:27.768Z,9.00
2022-12-03T06:01:54.280Z,8.80
2022-12-03T06:04:20.860Z,9.93
2022-12-03T06:06:47.436Z,9.30
2022-12-03T06:09:14.019Z,9.53
2022-12-03T06:11:41.374Z,9.10
2022-12-03T06:14:08.373Z,9.43
2022-12-03T06:16:34.984Z,8.73
2022-12-03T06:19:01.630Z,9.00
2022-12-03T06:21:28.123Z,8.00
2022-12-03T06:23:54.674Z,8.43
2022-12-03T06:26:21.162Z,8.43
2022-12-03T06:28:49.378Z,9.80
2022-12-03T06:31:16.034Z,9.10
2022-12-03T06:33:42.622Z,8.90
2022-12-03T06:36:09.164Z,7.93
2022-12-03T06:38:35.672Z,8.43
2022-12-03T06:41:02.259Z,8.23
2022-12-03T06:43:28.852Z,9.03
2022-12-03T06:45:55.395Z,7.70
2022-12-03T06:48:21.945Z,8.33
2022-12-03T06:50:48.489Z,8.90
2022-12-03T06:53:15.076Z,8.73
2022-12-03T06:55:41.605Z,8.07
2022-12-03T06:58:08.177Z,8.50
2022-12-03T07:00:34.777Z,8.50
2022-12-03T07:03:01.410Z,8.33
2022-12-03T07:05:28.023Z,8.10
2022-12-03T07:07:55.554Z,8.87
2022-12-03T07:10:22.394Z,9.30
2022-12-03T07:12:49.007Z,9.83
2022-12-03T07:15:15.584Z,9.00
2022-12-03T07:17:42.163Z,7.67
2022-12-03T07:20:09.085Z,7.87
2022-12-03T07:22:35.642Z,8.07
2022-12-03T07:25:02.166Z,8.23
2022-12-03T07:27:28.684Z,8.07
2022-12-03T07:29:55.439Z,8.13
2022-12-03T07:32:21.930Z,8.13
2022-12-03T07:34:48.465Z,8.67
2022-12-03T07:37:18.602Z,8.73
2022-12-03T07:39:48.078Z,7.90
2022-12-03T07:42:14.671Z,8.10
2022-12-03T07:44:41.273Z,7.43
2022-12-03T07:47:07.874Z,7.93
2022-12-03T07:49:34.473Z,8.17
2022-12-03T07:52:01.050Z,8.13
2022-12-03T07:54:27.586Z,8.13
2022-12-03T07:56:58.106Z,8.23
2022-12-03T07:59:28.079Z,7.53
2022-12-03T08:01:54.659Z,8.27
2022-12-03T08:04:21.564Z,8.50
2022-12-03T08:06:48.295Z,8.13
2022-12-03T08:09:16.403Z,7.93
2022-12-03T08:11:45.088Z,8.03
2022-12-03T08:14:13.608Z,7.60
2022-12-03T08:16:41.330Z,8.87
2022-12-03T08:19:11.738Z,8.80
2022-12-03T08:21:38.392Z,7.90
2022-12-03T08:24:14.973Z,7.57
2022-12-03T08:26:42.047Z,8.77
2022-12-03T08:29:13.358Z,8.30
2022-12-03T08:31:40.013Z,8.20
2022-12-03T08:34:23.454Z,8.50
2022-12-03T08:36:51.455Z,8.13
2022-12-03T08:39:35.005Z,7.43
2022-12-03T08:42:23.463Z,8.20
2022-12-03T08:44:50.080Z,7.70
2022-12-03T08:47:20.425Z,8.37
2022-12-03T08:50:29.639Z,7.97
2022-12-03T08:53:20.012Z,7.70
2022-12-03T08:55:48.182Z,7.97
2022-12-03T08:58:28.228Z,8.07
2022-12-03T09:01:00.737Z,7.70
2022-12-03T09:03:29.885Z,7.13
2022-12-03T09:05:56.418Z,7.47
2022-12-03T09:08:23.011Z,8.10
2022-12-03T09:10:49.573Z,7.07
2022-12-03T09:13:16.094Z,6.87
2022-12-03T09:15:42.604Z,7.63
2022-12-03T09:18:09.171Z,7.03
2022-12-03T09:20:35.726Z,8.13
2022-12-03T09:23:02.223Z,7.67
2022-12-03T09:25:28.786Z,7.33
2022-12-03T09:27:55.380Z,7.80
2022-12-03T09:30:21.927Z,7.77
2022-12-03T09:32:48.459Z,7.67
2022-12-03T09:35:15.001Z,8.20
2022-12-03T09:37:41.514Z,8.00
2022-12-03T09:40:08.583Z,7.60
2022-12-03T09:42:35.267Z,7.30
2022-12-03T09:45:02.345Z,7.77
2022-12-03T09:47:29.418Z,6.73
2022-12-03T09:49:56.254Z,7.80
2022-12-03T09:52:24.998Z,7.37
2022-12-03T09:54:52.853Z,7.43
2022-12-03T09:57:19.643Z,6.97
2022-12-03T09:59:46.282Z,7.03
2022-12-03T10:02:24.952Z,7.30
2022-12-03T10:04:51.817Z,7.47
2022-12-03T10:07:18.828Z,6.90
2022-12-03T10:09:45.392Z,7.10
2022-12-03T10:12:12.443Z,7.47
2022-12-03T10:14:39.229Z,7.80
2022-12-03T10:17:05.793Z,7.33
2022-12-03T10:19:33.108Z,7.50
2022-12-03T10:21:59.644Z,6.67
2022-12-03T10:24:30.554Z,7.53
2022-12-03T10:26:58.869Z,7.00
2022-12-03T10:29:35.345Z,7.70
2022-12-03T10:32:03.837Z,6.87
2022-12-03T10:34:33.333Z,7.53
2022-12-03T10:37:16.389Z,7.10
2022-12-03T10:40:10.707Z,7.97
2022-12-03T10:42:39.392Z,7.90
2022-12-03T10:45:13.793Z,7.00
2022-12-03T10:47:40.736Z,7.33
2022-12-03T10:50:15.507Z,7.03
2022-12-03T10:52:42.111Z,8.07
2022-12-03T10:55:11.942Z,7.60
2022-12-03T10:57:43.743Z,7.13
2022-12-03T11:00:16.266Z,7.43
2022-12-03T11:02:42.802Z,7.73
2022-12-03T11:05:14.704Z,8.20
2022-12-03T11:07:41.298Z,7.47
2022-12-03T11:10:12.367Z,7.50
2022-12-03T11:12:38.903Z,7.97
2022-12-03T11:15:06.560Z,8.13
2022-12-03T11:17:43.010Z,7.77
2022-12-03T11:20:24.913Z,7.43
2022-12-03T11:22:52.401Z,7.90
2022-12-03T11:25:25.127Z,7.43
2022-12-03T11:28:10.295Z,8.07
2022-12-03T11:30:49.215Z,7.10
2022-12-03T11:33:32.682Z,6.83
2022-12-03T11:36:05.479Z,7.80
2022-12-03T11:38:38.335Z,8.80
2022-12-03T11:41:19.002Z,7.33
2022-12-03T11:43:51.805Z,7.23
2022-12-03T11:46:21.994Z,7.40
2022-12-03T11:48:49.805Z,7.83
2022-12-03T11:51:16.920Z,7.80
2022-12-03T11:53:44.008Z,7.63
2022-12-03T11:56:16.123Z,7.17
2022-12-03T11:58:43.038Z,7.40
2022-12-03T12:01:09.605Z,7.03
2022-12-03T12:03:46.505Z,7.33
2022-12-03T12:06:14.620Z,7.70
2022-12-03T12:08:55.019Z,7.27
2022-12-03T12:11:31.637Z,7.60
2022-12-03T12:13:59.393Z,7.03
2022-12-03T12:16:52.181Z,7.17
2022-12-03T12:19:36.137Z,6.93
2022-12-03T12:22:15.393Z,6.83
2022-12-03T12:24:47.894Z,7.60
2022-12-03T12:27:30.066Z,6.70
2022-12-03T12:30:00.672Z,7.27
2022-12-03T12:32:29.124Z,8.17
2022-12-03T12:35:28.711Z,7.10
2022-12-03T12:37:59.698Z,7.73
2022-12-03T12:40:31.966Z,7.40
2022-12-03T12:43:02.106Z,7.63
2022-12-03T12:45:33.903Z,7.80
2022-12-03T12:48:09.693Z,6.63
2022-12-03T12:50:39.900Z,7.20
2022-12-03T12:53:28.482Z,7.27
2022-12-03T12:56:06.652Z,7.10
2022-12-03T12:58:33.353Z,7.07
2022-12-03T13:01:04.321Z,6.93
2022-12-03T13:03:34.472Z,6.83
2022-12-03T13:06:01.616Z,6.93
2022-12-03T13:08:32.252Z,7.23
2022-12-03T13:10:59.905Z,7.30
2022-12-03T13:13:29.729Z,6.90
2022-12-03T13:15:56.212Z,8.00
2022-12-03T13:18:33.959Z,7.20
2022-12-03T13:21:06.686Z,7.40
2022-12-03T13:23:33.946Z,6.73
2022-12-03T13:26:24.531Z,6.47
2022-12-03T13:28:55.030Z,6.57
2022-12-03T13:31:23.139Z,7.50
2022-12-03T13:33:50.366Z,7.73
2022-12-03T13:36:17.117Z,7.23
2022-12-03T13:38:43.776Z,7.17
2022-12-03T13:41:33.647Z,7.00
2022-12-03T13:44:00.151Z,6.77
2022-12-03T13:46:28.879Z,7.07
2022-12-03T13:49:00.177Z,7.37
2022-12-03T13:51:30.352Z,6.80
2022-12-03T13:53:58.147Z,7.73
2022-12-03T13:56:29.155Z,7.20
2022-12-03T13:58:56.255Z,6.20
2022-12-03T14:01:22.919Z,6.53
2022-12-03T14:03:49.922Z,6.77
2022-12-03T14:06:16.419Z,7.10
2022-12-03T14:08:42.987Z,7.33
2022-12-03T14:11:09.569Z,6.47
2022-12-03T14:13:36.079Z,6.97
2022-12-03T14:16:02.721Z,7.03
2022-12-03T14:18:29.307Z,6.70
2022-12-03T14:20:55.905Z,7.13
2022-12-03T14:23:22.453Z,6.30
2022-12-03T14:25:49.005Z,7.30
2022-12-03T14:28:15.545Z,6.73
2022-12-03T14:30:42.176Z,6.90
2022-12-03T14:33:08.771Z,7.10
2022-12-03T14:35:35.264Z,6.27
2022-12-03T14:38:01.776Z,7.17
2022-12-03T14:40:28.392Z,6.67
2022-12-03T14:42:54.947Z,7.00
2022-12-03T14:45:23.010Z,6.77
2022-12-03T14:47:49.584Z,6.70
2022-12-03T14:50:16.165Z,7.73
2022-12-03T14:52:43.356Z,7.10
2022-12-03T14:55:09.911Z,7.27
2022-12-03T14:57:36.400Z,6.53
2022-12-03T15:00:23.919Z,7.13
2022-12-03T15:02:50.526Z,6.47
2022-12-03T15:05:19.274Z,7.20
2022-12-03T15:07:48.725Z,6.47
2022-12-03T15:10:16.571Z,6.73
2022-12-03T15:12:43.113Z,6.93
2022-12-03T15:15:10.224Z,6.83
2022-12-03T15:17:36.801Z,7.07
2022-12-03T15:20:03.994Z,7.07
2022-12-03T15:22:30.525Z,7.00
2022-12-03T15:24:57.097Z,6.87
2022-12-03T15:27:23.715Z,6.60
2022-12-03T15:29:50.214Z,7.20
2022-12-03T15:32:16.885Z,6.77
2022-12-03T15:34:43.726Z,7.43
2022-12-03T15:37:10.403Z,7.27
2022-12-03T15:39:37.609Z,7.30
2022-12-03T15:42:04.252Z,7.30
2022-12-03T15:44:30.778Z,7.10
2022-12-03T15:46:57.309Z,7.00
2022-12-03T15:49:23.945Z,6.70
2022-12-03T15:51:50.434Z,6.27
2022-12-03T15:54:16.983Z,7.17
2022-12-03T15:56:43.641Z,6.70
2022-12-03T15:59:10.254Z,7.00
2022-12-03T16:01:36.866Z,6.90
2022-12-03T16:04:03.564Z,6.63
2022-12-03T16:06:30.127Z,7.10
2022-12-03T16:08:56.740Z,7.03
2022-12-03T16:11:23.336Z,7.30
2022-12-03T16:13:49.977Z,6.50
2022-12-03T16:16:16.650Z,6.93
2022-12-03T16:18:43.271Z,5.77
2022-12-03T16:21:09.842Z,6.67
2022-12-03T16:23:36.773Z,6.47
2022-12-03T16:26:03.315Z,7.17
2022-12-03T16:28:29.955Z,6.80
2022-12-03T16:30:56.649Z,6.40
2022-12-03T16:33:27.581Z,7.00
2022-12-03T16:35:54.624Z,7.20
2022-12-03T16:38:21.175Z,6.37
2022-12-03T16:40:47.832Z,6.33
2022-12-03T16:43:14.423Z,6.20
2022-12-03T16:46:01.041Z,6.77
2022-12-03T16:48:28.417Z,6.97
2022-12-03T16:50:54.943Z,7.10
2022-12-03T16:53:21.482Z,6.83
2022-12-03T16:55:51.004Z,6.33
2022-12-03T16:58:21.154Z,6.93
2022-12-03T17:00:50.701Z,7.03
2022-12-03T17:03:17.986Z,6.03
2022-12-03T17:05:44.974Z,6.40
2022-12-03T17:08:11.632Z,6.90
2022-12-03T17:10:38.438Z,6.90
2022-12-03T17:13:09.660Z,6.00
2022-12-03T17:15:36.870Z,6.50
2022-12-03T17:18:06.300Z,6.50
2022-12-03T17:20:33.261Z,6.10
2022-12-03T17:22:59.990Z,5.90
2022-12-03T17:25:26.719Z,6.07
2022-12-03T17:27:53.283Z,6.60
2022-12-03T17:30:19.957Z,6.03
2022-12-03T17:32:46.473Z,5.80
2022-12-03T17:35:12.970Z,5.90
2022-12-03T17:37:39.525Z,5.77
2022-12-03T17:40:07.047Z,6.20
2022-12-03T17:42:33.612Z,6.33
2022-12-03T17:45:00.157Z,6.33
2022-12-03T17:47:26.672Z,5.83
2022-12-03T17:49:53.608Z,5.73
2022-12-03T17:52:20.428Z,6.57
2022-12-03T17:55:10.019Z,6.10
2022-12-03T17:57:33.513Z,5.77
2022-12-03T18:00:00.074Z,6.63
2022-12-03T18:02:26.679Z,5.87
2022-12-03T18:04:53.184Z,5.93
2022-12-03T18:07:19.655Z,6.13
2022-12-03T18:09:46.162Z,6.07
2022-12-03T18:12:12.656Z,5.90
2022-12-03T18:14:39.381Z,5.60
2022-12-03T18:17:05.893Z,5.27
2022-12-03T18:19:32.445Z,5.70
2022-12-03T18:21:58.971Z,5.77
2022-12-03T18:24:25.464Z,6.00
2022-12-03T18:26:52.024Z,5.33
2022-12-03T18:29:18.564Z,5.23
2022-12-03T18:31:45.469Z,5.57
2022-12-03T18:34:12.071Z,5.70
2022-12-03T18:36:38.697Z,5.30
2022-12-03T18:39:05.976Z,5.70
2022-12-03T18:41:33.217Z,5.67
2022-12-03T18:43:59.756Z,5.60
2022-12-03T18:46:51.595Z,5.73
2022-12-03T18:49:12.820Z,5.80
2022-12-03T18:51:39.393Z,5.70
2022-12-03T18:54:10.177Z,6.00
2022-12-03T18:56:36.675Z,5.40
2022-12-03T18:59:03.273Z,5.43
2022-12-03T19:01:29.827Z,5.63
2022-12-03T19:03:56.367Z,5.57
2022-12-03T19:06:22.919Z,5.53
2022-12-03T19:08:53.981Z,5.90
2022-12-03T19:11:21.349Z,5.70
2022-12-03T19:13:47.967Z,5.67
2022-12-03T19:16:16.953Z,5.97
2022-12-03T19:18:43.832Z,6.23
2022-12-03T19:21:11.811Z,5.50
2022-12-03T19:23:38.439Z,5.50
2022-12-03T19:26:06.039Z,6.07
2022-12-03T19:28:32.619Z,5.97
2022-12-03T19:31:19.404Z,5.67
2022-12-03T19:33:45.975Z,5.47
2022-12-03T19:36:19.781Z,5.67
2022-12-03T19:38:50.787Z,5.67
2022-12-03T19:41:21.849Z,6.20
2022-12-03T19:43:49.936Z,6.00
2022-12-03T19:46:16.530Z,5.10
2022-12-03T19:48:43.123Z,5.77
2022-12-03T19:51:32.890Z,5.30
2022-12-03T19:53:58.830Z,6.10
2022-12-03T19:56:25.406Z,5.87
2022-12-03T19:58:55.170Z,5.73
2022-12-03T20:01:23.711Z,5.40
2022-12-03T20:03:51.776Z,6.00
2022-12-03T20:06:20.421Z,5.60
2022-12-03T20:08:47.039Z,6.03
2022-12-03T20:11:18.307Z,5.60
2022-12-03T20:13:44.927Z,5.97
2022-12-03T20:16:12.624Z,5.73
2022-12-03T20:18:43.002Z,5.23
2022-12-03T20:21:09.963Z,5.63
2022-12-03T20:23:36.767Z,5.53
2022-12-03T20:26:07.003Z,5.70
2022-12-03T20:28:33.532Z,5.87
2022-12-03T20:31:00.954Z,6.20
2022-12-03T20:33:27.656Z,5.80
2022-12-03T20:35:54.887Z,5.70
2022-12-03T20:38:24.788Z,6.00
2022-12-03T20:40:51.283Z,5.33
2022-12-03T20:43:17.770Z,6.13
2022-12-03T20:45:44.452Z,5.80
2022-12-03T20:48:11.632Z,6.57
2022-12-03T20:50:39.045Z,5.57
2022-12-03T20:53:23.867Z,5.87
2022-12-03T20:55:58.287Z,5.40
2022-12-03T20:58:24.881Z,5.60
2022-12-03T21:00:51.453Z,5.40
2022-12-03T21:03:18.082Z,5.67
2022-12-03T21:05:44.644Z,6.10
2022-12-03T21:08:11.719Z,5.40
2022-12-03T21:10:45.314Z,6.07
2022-12-03T21:13:16.168Z,5.27
2022-12-03T21:15:43.171Z,5.63
2022-12-03T21:18:10.336Z,5.80
2022-12-03T21:20:47.035Z,5.57
2022-12-03T21:23:13.947Z,6.37
2022-12-03T21:25:40.504Z,6.13
2022-12-03T21:28:08.227Z,5.77
2022-12-03T21:30:37.624Z,6.70
2022-12-03T21:33:04.366Z,5.93
2022-12-03T21:35:30.878Z,6.10
2022-12-03T21:37:57.544Z,5.73
2022-12-03T21:40:24.083Z,5.30
2022-12-03T21:42:50.796Z,5.77
2022-12-03T21:45:17.399Z,5.27
2022-12-03T21:47:47.117Z,6.40
2022-12-03T21:50:13.723Z,5.60
2022-12-03T21:52:40.627Z,5.80
2022-12-03T21:55:07.399Z,4.93
2022-12-03T21:57:37.296Z,5.13
2022-12-03T22:00:07.506Z,5.27
2022-12-03T22:02:34.370Z,5.67
2022-12-03T22:05:00.911Z,5.40
2022-12-03T22:07:27.538Z,5.67
2022-12-03T22:09:54.396Z,5.57
2022-12-03T22:12:21.061Z,5.90
2022-12-03T22:14:47.624Z,5.83
2022-12-03T22:17:14.149Z,5.27
2022-12-03T22:19:40.707Z,5.33
2022-12-03T22:22:07.235Z,5.70
2022-12-03T22:24:33.869Z,5.60
2022-12-03T22:27:00.394Z,6.10
2022-12-03T22:29:26.887Z,5.90
2022-12-03T22:31:53.460Z,5.93
2022-12-03T22:34:20.020Z,6.30
2022-12-03T22:36:46.653Z,5.97
2022-12-03T22:39:13.223Z,5.77
2022-12-03T22:41:39.788Z,6.00
2022-12-03T22:44:06.329Z,6.20
2022-12-03T22:46:32.971Z,5.90
2022-12-03T22:49:06.415Z,5.70
2022-12-03T22:51:33.538Z,6.37
2022-12-03T22:54:00.803Z,5.77
2022-12-03T22:56:28.074Z,5.50
2022-12-03T22:58:55.000Z,6.13
2022-12-03T23:01:25.618Z,5.53
2022-12-03T23:03:52.351Z,5.60
2022-12-03T23:06:19.044Z,6.00
2022-12-03T23:08:45.639Z,5.83
2022-12-03T23:11:12.438Z,6.10
2022-12-03T23:13:39.081Z,5.47
2022-12-03T23:16:05.948Z,5.77
2022-12-03T23:18:32.715Z,5.40
2022-12-03T23:20:59.345Z,5.50
2022-12-03T23:23:26.666Z,5.40
2022-12-03T23:26:00.070Z,5.63
2022-12-03T23:28:27.073Z,5.70
2022-12-03T23:30:53.766Z,6.10
2022-12-03T23:33:20.407Z,5.90
2022-12-03T23:35:46.981Z,5.43
2022-12-03T23:38:13.533Z,5.67
2022-12-03T23:40:44.763Z,5.73
2022-12-03T23:43:14.382Z,5.47
2022-12-03T23:45:40.918Z,4.87
2022-12-03T23:48:07.515Z,5.50
2022-12-03T23:50:34.909Z,5.57
2022-12-03T23:53:01.478Z,5.67
2022-12-03T23:55:28.031Z,5.90
2022-12-03T23:57:54.702Z,5.67
